Time;durP1;ratioP1;P1;durP2;ratioP2;P2;SDS_P1;SDS_P2;PMS_P1;PMS_P2;Temp;Humidity;BMP_temperature;BMP_pressure;BME280_temperature;BME280_humidity;BME280_pressure;Samples;Min_cycle;Max_cycle;Signal;HPM_P1;HPM_P2
2023/01/01 00:01:31;;;;;;;18.70;10.57;;;7.90;99.90;;;;;;5093466;28;20032;-70
2023/01/01 00:03:58;;;;;;;14.95;9.85;;;8.00;99.90;;;;;;5093731;28;20035;-70
2023/01/01 00:06:25;;;;;;;18.92;10.52;;;8.00;99.90;;;;;;5101884;28;20077;-70
2023/01/01 00:10:26;;;;;;;15.13;9.48;;;8.00;99.90;;;;;;5088279;28;20021;-69
2023/01/01 00:11:36;;;;;;;16.50;10.38;;;8.00;99.90;;;;;;5097179;28;20129;-70
2023/01/01 00:14:02;;;;;;;20.25;10.00;;;8.00;99.90;;;;;;5090269;28;20489;-70
2023/01/01 00:16:28;;;;;;;15.63;9.85;;;8.00;99.90;;;;;;5099245;28;20021;-70
2023/01/01 00:18:53;;;;;;;17.45;10.43;;;8.00;99.90;;;;;;5104386;28;20067;-70
2023/01/01 00:21:19;;;;;;;17.13;9.77;;;8.00;99.90;;;;;;5099741;28;20024;-69
2023/01/01 00:23:44;;;;;;;18.40;10.70;;;7.90;99.90;;;;;;5095246;28;20036;-69
2023/01/01 00:26:12;;;;;;;20.08;11.07;;;7.90;99.90;;;;;;5099282;28;20039;-70
2023/01/01 00:28:39;;;;;;;18.85;11.02;;;7.80;99.90;;;;;;5097119;28;20063;-69
2023/01/01 00:31:15;;;;;;;17.52;11.90;;;7.70;99.90;;;;;;5103643;28;20473;-70
2023/01/01 00:33:42;;;;;;;20.30;13.07;;;7.60;99.90;;;;;;5110088;28;20028;-70
2023/01/01 00:36:12;;;;;;;24.38;14.02;;;7.50;99.90;;;;;;5093883;28;20016;-69
2023/01/01 00:38:38;;;;;;;20.40;11.55;;;7.50;99.90;;;;;;5101356;28;20027;-69
2023/01/01 00:41:04;;;;;;;15.18;8.98;;;7.60;99.90;;;;;;5102089;28;20030;-70
2023/01/01 00:43:30;;;;;;;15.25;9.30;;;7.60;99.90;;;;;;5111575;28;20389;-69
2023/01/01 00:45:56;;;;;;;18.38;10.27;;;7.70;99.90;;;;;;5103156;28;20118;-69
2023/01/01 00:48:21;;;;;;;17.20;9.88;;;7.70;99.90;;;;;;5100646;28;20024;-69
2023/01/01 00:50:48;;;;;;;19.30;10.18;;;7.70;99.90;;;;;;5091297;28;20466;-69
2023/01/01 00:53:14;;;;;;;16.35;9.68;;;7.70;99.90;;;;;;5093859;28;20057;-69
2023/01/01 00:55:40;;;;;;;21.67;12.48;;;7.70;99.90;;;;;;5102726;28;20035;-69
2023/01/01 00:58:06;;;;;;;22.25;12.57;;;7.70;99.90;;;;;;5103212;28;20477;-70
2023/01/01 01:00:32;;;;;;;14.38;9.02;;;7.80;99.90;;;;;;5089957;28;20035;-69
2023/01/01 01:02:58;;;;;;;20.55;12.32;;;7.80;99.90;;;;;;5100443;28;20044;-69
2023/01/01 01:05:23;;;;;;;19.95;11.38;;;7.80;99.90;;;;;;5098984;28;20135;-69
2023/01/01 01:07:49;;;;;;;14.77;8.88;;;7.80;99.90;;;;;;5097314;28;20393;-69
2023/01/01 01:10:16;;;;;;;15.48;9.55;;;7.80;99.90;;;;;;5108341;28;20169;-69
2023/01/01 01:12:42;;;;;;;16.92;9.55;;;7.90;99.90;;;;;;5108776;28;20120;-69
2023/01/01 01:15:08;;;;;;;17.98;10.93;;;7.80;99.90;;;;;;5104497;28;20063;-69
2023/01/01 01:17:35;;;;;;;18.48;11.18;;;7.80;99.90;;;;;;5093356;28;20169;-69
2023/01/01 01:20:00;;;;;;;19.85;12.18;;;7.70;99.90;;;;;;5107038;28;20024;-69
2023/01/01 01:22:26;;;;;;;23.13;13.63;;;7.70;99.90;;;;;;5097268;28;20020;-69
2023/01/01 01:24:52;;;;;;;24.63;14.73;;;7.70;99.90;;;;;;5108059;28;20098;-69
2023/01/01 01:27:18;;;;;;;30.92;14.82;;;7.60;99.90;;;;;;5099827;28;20069;-69
2023/01/01 01:29:43;;;;;;;28.65;16.85;;;7.60;99.90;;;;;;5090156;28;20379;-69
2023/01/01 01:32:11;;;;;;;19.27;12.70;;;7.60;99.90;;;;;;5101481;28;20027;-69
2023/01/01 01:34:37;;;;;;;17.77;11.07;;;7.60;99.90;;;;;;5098826;28;20489;-69
2023/01/01 01:37:03;;;;;;;15.77;9.95;;;7.70;99.90;;;;;;5095879;28;20073;-69
2023/01/01 01:39:28;;;;;;;12.80;7.90;;;7.70;99.90;;;;;;5105197;28;20016;-70
2023/01/01 01:41:54;;;;;;;11.90;8.30;;;7.90;99.90;;;;;;5103962;28;20043;-69
2023/01/01 01:44:45;;;;;;;15.55;8.75;;;7.90;99.90;;;;;;5104172;28;20469;-69
2023/01/01 01:47:22;;;;;;;11.80;7.28;;;7.90;99.90;;;;;;5099038;28;20049;-69
2023/01/01 01:49:52;;;;;;;13.93;8.55;;;7.90;99.90;;;;;;5099788;28;20138;-69
2023/01/01 01:52:17;;;;;;;11.85;7.90;;;7.90;99.90;;;;;;5103023;28;20038;-70
2023/01/01 01:54:43;;;;;;;14.95;8.52;;;7.90;99.90;;;;;;5097098;28;20474;-69
2023/01/01 01:57:11;;;;;;;13.38;8.18;;;8.00;99.90;;;;;;5091532;28;20532;-69
2023/01/01 01:59:41;;;;;;;13.98;7.60;;;7.90;99.90;;;;;;5102521;28;20142;-70
2023/01/01 02:02:29;;;;;;;14.52;8.05;;;8.00;99.90;;;;;;5094816;28;20038;-70
2023/01/01 02:04:56;;;;;;;13.73;8.02;;;7.90;99.90;;;;;;5097331;28;20556;-69
2023/01/01 02:07:23;;;;;;;11.35;7.38;;;7.90;99.90;;;;;;5107751;28;20084;-69
2023/01/01 02:09:49;;;;;;;15.82;8.73;;;7.80;99.90;;;;;;5100091;28;20032;-69
2023/01/01 02:12:15;;;;;;;20.60;12.65;;;7.80;99.90;;;;;;5091030;28;20398;-69
2023/01/01 02:14:41;;;;;;;22.38;13.98;;;7.60;99.90;;;;;;5089163;28;20062;-70
2023/01/01 02:17:13;;;;;;;22.00;14.38;;;7.50;99.90;;;;;;5097501;28;20497;-70
2023/01/01 02:19:51;;;;;;;25.48;14.80;;;7.60;99.90;;;;;;5088242;28;20481;-69
2023/01/01 02:22:43;;;;;;;17.08;11.45;;;7.70;99.90;;;;;;5100960;28;20381;-70
2023/01/01 02:25:32;;;;;;;29.85;16.15;;;7.70;99.90;;;;;;5096140;28;20036;-69
2023/01/01 02:28:23;;;;;;;30.88;18.15;;;7.70;99.90;;;;;;5097755;28;20039;-69
2023/01/01 02:30:50;;;;;;;19.23;11.90;;;7.70;99.90;;;;;;5092499;28;20038;-70
2023/01/01 02:33:22;;;;;;;16.25;10.05;;;7.60;99.90;;;;;;5087859;27;20031;-70
2023/01/01 02:35:56;;;;;;;16.73;9.80;;;7.60;99.90;;;;;;5096219;28;20039;-70
2023/01/01 02:38:36;;;;;;;19.80;10.30;;;7.60;99.90;;;;;;5095226;28;20032;-69
2023/01/01 02:41:03;;;;;;;17.20;9.93;;;7.60;99.90;;;;;;5094195;28;20408;-69
2023/01/01 02:43:29;;;;;;;14.30;9.43;;;7.60;99.90;;;;;;5096647;28;20051;-70
2023/01/01 02:45:55;;;;;;;15.45;8.73;;;7.60;99.90;;;;;;5091957;28;20032;-69
2023/01/01 02:48:46;;;;;;;13.82;8.70;;;7.80;99.90;;;;;;5097094;28;20024;-70
2023/01/01 02:51:22;;;;;;;25.58;14.60;;;7.80;99.90;;;;;;5101293;28;20614;-69
2023/01/01 02:54:15;;;;;;;27.58;13.43;;;7.60;99.90;;;;;;5089811;28;20024;-69
2023/01/01 02:56:59;;;;;;;21.40;11.90;;;7.60;99.90;;;;;;5095588;28;20027;-69
2023/01/01 03:03:09;;;;;;;20.33;12.18;;;7.70;99.90;;;;;;5098507;28;20046;-70
2023/01/01 03:08:58;;;;;;;24.35;13.45;;;7.70;99.90;;;;;;5079208;28;20047;-69
2023/01/01 03:11:38;;;;;;;28.15;15.02;;;7.70;99.90;;;;;;5092113;28;20043;-70
2023/01/01 03:14:20;;;;;;;20.65;12.27;;;7.60;99.90;;;;;;5098571;28;20027;-70
2023/01/01 03:16:58;;;;;;;17.60;10.82;;;7.60;99.90;;;;;;5100247;28;20020;-70
2023/01/01 03:19:28;;;;;;;28.75;18.85;;;7.70;99.90;;;;;;5094226;28;20448;-69
2023/01/01 03:22:04;;;;;;;19.52;11.70;;;7.80;99.90;;;;;;5109722;28;20030;-70
2023/01/01 03:24:38;;;;;;;23.25;12.10;;;7.80;99.90;;;;;;5105513;28;20032;-69
2023/01/01 03:27:18;;;;;;;15.90;9.48;;;7.80;99.90;;;;;;5095516;28;20094;-69
2023/01/01 03:29:46;;;;;;;14.00;9.07;;;7.70;99.90;;;;;;5097270;28;20042;-70
2023/01/01 03:32:19;;;;;;;13.30;8.23;;;7.80;99.90;;;;;;5101989;28;20062;-70
2023/01/01 03:34:52;;;;;;;16.15;7.68;;;7.80;99.90;;;;;;5100385;28;20028;-69
2023/01/01 03:37:24;;;;;;;14.52;7.78;;;7.80;99.90;;;;;;5104644;28;20540;-69
2023/01/01 03:39:53;;;;;;;13.02;7.75;;;7.90;99.90;;;;;;5097256;28;20039;-70
2023/01/01 03:42:30;;;;;;;11.88;7.35;;;8.00;99.90;;;;;;5096404;28;20092;-70
2023/01/01 03:45:03;;;;;;;15.35;8.70;;;7.90;99.90;;;;;;5095352;28;20120;-69
2023/01/01 03:47:29;;;;;;;15.35;8.90;;;7.70;99.90;;;;;;5099705;28;20073;-70
2023/01/01 03:49:56;;;;;;;16.48;9.65;;;7.60;99.90;;;;;;5104391;28;20047;-69
2023/01/01 03:52:39;;;;;;;17.75;9.85;;;7.70;99.90;;;;;;5092464;28;21679;-70
2023/01/01 03:55:11;;;;;;;15.77;7.50;;;7.70;99.90;;;;;;5093942;28;20042;-69
2023/01/01 03:57:49;;;;;;;15.88;9.00;;;7.70;99.90;;;;;;5096839;28;20028;-69
2023/01/01 04:00:21;;;;;;;12.93;7.95;;;7.70;99.90;;;;;;5102838;28;20020;-69
2023/01/01 04:03:07;;;;;;;13.10;8.57;;;7.70;99.90;;;;;;5103721;28;20028;-70
2023/01/01 04:05:37;;;;;;;12.95;8.20;;;7.70;99.90;;;;;;5087483;28;20040;-70
2023/01/01 04:08:03;;;;;;;13.15;7.78;;;7.70;99.90;;;;;;5097734;28;20220;-70
2023/01/01 04:10:33;;;;;;;13.13;8.60;;;7.80;99.90;;;;;;5091902;28;20075;-70
2023/01/01 04:13:03;;;;;;;16.00;8.20;;;7.80;99.90;;;;;;5095123;28;20685;-70
2023/01/01 04:15:30;;;;;;;12.05;8.23;;;7.80;99.90;;;;;;5092921;28;20027;-70
2023/01/01 04:17:56;;;;;;;13.20;8.40;;;7.80;99.90;;;;;;5093723;27;20512;-70
2023/01/01 04:20:22;;;;;;;13.70;7.00;;;7.70;99.90;;;;;;5088526;28;20023;-70
2023/01/01 04:22:47;;;;;;;12.55;7.63;;;7.80;99.90;;;;;;5097101;28;20122;-70
2023/01/01 04:25:14;;;;;;;13.23;7.28;;;7.80;99.90;;;;;;5096355;28;20659;-70
2023/01/01 04:27:40;;;;;;;22.25;16.10;;;7.80;99.90;;;;;;5091925;28;20135;-70
2023/01/01 04:30:08;;;;;;;18.63;12.63;;;7.60;99.90;;;;;;5092354;28;20086;-69
2023/01/01 04:32:34;;;;;;;16.42;9.60;;;7.70;99.90;;;;;;5090829;28;20500;-70
2023/01/01 04:35:00;;;;;;;19.38;10.18;;;7.70;99.90;;;;;;5090626;28;20051;-70
2023/01/01 04:37:26;;;;;;;14.93;7.95;;;7.60;99.90;;;;;;5100407;28;20032;-70
2023/01/01 04:39:52;;;;;;;13.68;8.18;;;7.70;99.90;;;;;;5095050;28;20036;-70
2023/01/01 04:42:18;;;;;;;16.00;7.60;;;7.70;99.90;;;;;;5087407;28;20023;-70
2023/01/01 04:44:44;;;;;;;13.80;8.48;;;7.60;99.90;;;;;;5092665;28;20071;-70
2023/01/01 04:47:09;;;;;;;17.73;8.10;;;7.80;99.90;;;;;;5089323;28;20050;-70
2023/01/01 04:49:35;;;;;;;15.60;8.45;;;7.90;99.90;;;;;;5095830;28;20101;-70
2023/01/01 04:52:01;;;;;;;12.98;7.43;;;8.00;99.90;;;;;;5082620;28;20545;-70
2023/01/01 04:54:27;;;;;;;14.27;8.57;;;7.90;99.90;;;;;;5090389;28;20085;-70
2023/01/01 04:56:52;;;;;;;13.85;7.57;;;7.90;99.90;;;;;;5091415;28;20069;-70
2023/01/01 04:59:18;;;;;;;14.27;7.70;;;7.80;99.90;;;;;;5096973;28;20031;-69
2023/01/01 05:01:43;;;;;;;16.48;8.95;;;7.70;99.90;;;;;;5092517;28;20024;-69
2023/01/01 05:04:13;;;;;;;16.13;9.25;;;7.70;99.90;;;;;;5098940;28;20093;-70
2023/01/01 05:06:38;;;;;;;13.52;7.68;;;7.70;99.90;;;;;;5088057;28;20073;-70
2023/01/01 05:09:04;;;;;;;13.52;8.35;;;7.60;99.90;;;;;;5084781;28;20362;-70
2023/01/01 05:11:30;;;;;;;16.77;8.07;;;7.60;99.90;;;;;;5085648;28;20039;-70
2023/01/01 05:13:58;;;;;;;14.65;8.85;;;7.50;99.90;;;;;;5086906;28;20078;-70
2023/01/01 05:16:30;;;;;;;11.02;7.35;;;7.40;99.90;;;;;;5095703;28;20378;-70
2023/01/01 05:18:56;;;;;;;14.27;7.22;;;7.20;99.90;;;;;;5090834;28;20102;-70
2023/01/01 05:21:24;;;;;;;11.48;6.72;;;7.10;99.90;;;;;;5098588;28;20100;-70
2023/01/01 05:23:54;;;;;;;11.63;6.63;;;7.10;99.90;;;;;;5086315;28;20047;-70
2023/01/01 05:26:22;;;;;;;13.77;8.05;;;7.10;99.90;;;;;;5087946;28;20059;-70
2023/01/01 05:28:48;;;;;;;11.60;6.78;;;7.00;99.90;;;;;;5087311;27;20351;-69
2023/01/01 05:31:25;;;;;;;14.25;7.15;;;7.00;99.90;;;;;;5093015;28;20038;-69
2023/01/01 05:33:51;;;;;;;10.27;5.97;;;7.10;99.90;;;;;;5090267;28;20088;-69
2023/01/01 05:36:32;;;;;;;10.45;5.43;;;7.10;99.90;;;;;;5087471;28;20040;-70
2023/01/01 05:38:58;;;;;;;12.75;6.90;;;7.10;99.90;;;;;;5091662;28;20435;-70
2023/01/01 05:41:24;;;;;;;11.27;7.10;;;7.10;99.90;;;;;;5100055;28;20023;-70
2023/01/01 05:43:51;;;;;;;10.05;5.60;;;7.10;99.90;;;;;;5087755;28;21267;-70
2023/01/01 05:46:19;;;;;;;10.45;6.03;;;7.10;99.90;;;;;;5093723;28;20550;-70
2023/01/01 05:48:45;;;;;;;10.73;5.28;;;7.10;99.90;;;;;;5106461;27;20035;-70
2023/01/01 05:51:13;;;;;;;11.82;6.20;;;7.20;99.90;;;;;;5097574;28;20035;-69
2023/01/01 05:53:40;;;;;;;14.10;7.30;;;7.10;99.90;;;;;;5083684;28;20628;-69
2023/01/01 05:56:06;;;;;;;12.23;6.90;;;7.10;99.90;;;;;;5092650;28;20024;-70
2023/01/01 05:58:33;;;;;;;11.75;5.82;;;7.10;99.90;;;;;;5100812;28;20607;-69
2023/01/01 06:01:05;;;;;;;12.15;5.88;;;7.00;99.90;;;;;;5089285;28;20034;-70
2023/01/01 06:03:31;;;;;;;9.13;4.68;;;6.90;99.90;;;;;;5082154;28;20093;-69
2023/01/01 06:05:56;;;;;;;11.43;6.25;;;7.00;99.90;;;;;;5086944;28;20043;-69
2023/01/01 06:08:22;;;;;;;11.15;6.07;;;7.00;99.90;;;;;;5089556;28;20027;-70
2023/01/01 06:10:47;;;;;;;14.45;7.15;;;6.90;99.90;;;;;;5093900;28;20543;-70
2023/01/01 06:13:13;;;;;;;15.45;6.65;;;7.00;99.90;;;;;;5093399;28;20101;-70
2023/01/01 06:15:39;;;;;;;12.68;7.45;;;7.00;99.90;;;;;;5093641;28;20549;-69
2023/01/01 06:18:04;;;;;;;10.52;5.90;;;7.00;99.90;;;;;;5082748;28;20088;-70
2023/01/01 06:20:30;;;;;;;11.73;6.10;;;7.00;99.90;;;;;;5088976;28;20474;-70
2023/01/01 06:22:56;;;;;;;11.55;6.25;;;7.00;99.90;;;;;;5088201;28;20101;-69
2023/01/01 06:25:22;;;;;;;15.60;5.90;;;7.00;99.90;;;;;;5091250;28;20031;-70
2023/01/01 06:27:47;;;;;;;9.20;5.20;;;7.00;99.90;;;;;;5091017;28;20108;-70
2023/01/01 06:30:13;;;;;;;11.27;6.07;;;6.90;99.90;;;;;;5084006;28;20023;-70
2023/01/01 06:32:39;;;;;;;10.25;5.72;;;6.90;99.90;;;;;;5082085;28;20113;-70
2023/01/01 06:35:05;;;;;;;11.55;6.65;;;7.00;99.90;;;;;;5088775;28;20084;-69
2023/01/01 06:37:30;;;;;;;10.70;6.63;;;7.10;99.90;;;;;;5092611;28;20030;-70
2023/01/01 06:39:56;;;;;;;11.35;6.95;;;7.20;99.90;;;;;;5080694;28;20403;-70
2023/01/01 06:42:21;;;;;;;14.15;7.90;;;7.30;99.90;;;;;;5094032;28;20175;-70
2023/01/01 06:44:47;;;;;;;14.48;7.57;;;7.20;99.90;;;;;;5087014;28;20086;-70
2023/01/01 06:47:13;;;;;;;11.05;6.88;;;7.20;99.90;;;;;;5092240;28;20678;-70
2023/01/01 06:49:38;;;;;;;10.13;5.43;;;7.20;99.90;;;;;;5089044;28;20465;-70
2023/01/01 06:52:04;;;;;;;11.57;6.40;;;7.10;99.90;;;;;;5088968;28;20047;-70
2023/01/01 06:54:30;;;;;;;12.50;7.47;;;7.10;99.90;;;;;;5082071;28;20171;-70
2023/01/01 06:56:55;;;;;;;12.80;6.93;;;7.20;99.90;;;;;;5080623;28;20023;-70
2023/01/01 06:59:21;;;;;;;14.85;7.55;;;7.20;99.90;;;;;;5086055;28;20032;-70
2023/01/01 07:01:46;;;;;;;13.48;7.93;;;7.20;99.90;;;;;;5079917;28;20084;-70
2023/01/01 07:04:14;;;;;;;18.85;7.93;;;7.20;99.90;;;;;;5084851;28;20040;-70
2023/01/01 07:06:41;;;;;;;12.30;6.88;;;7.10;99.90;;;;;;5087127;28;20066;-70
2023/01/01 07:09:07;;;;;;;12.43;7.38;;;7.10;99.90;;;;;;5084255;28;20345;-70
2023/01/01 07:11:34;;;;;;;15.93;7.20;;;7.20;99.90;;;;;;5087785;28;20718;-70
2023/01/01 07:13:59;;;;;;;13.65;7.57;;;7.30;99.90;;;;;;5083599;28;20134;-70
2023/01/01 07:16:25;;;;;;;12.43;6.90;;;7.40;99.90;;;;;;5082746;28;20028;-70
2023/01/01 07:18:51;;;;;;;15.27;7.07;;;7.40;99.90;;;;;;5088479;28;20035;-70
2023/01/01 07:21:34;;;;;;;13.23;7.47;;;7.50;99.90;;;;;;5082049;28;20028;-70
2023/01/01 07:24:03;;;;;;;16.13;9.38;;;7.50;99.90;;;;;;5086815;28;20032;-70
2023/01/01 07:26:31;;;;;;;15.30;8.55;;;7.30;99.90;;;;;;5088429;28;20043;-70
2023/01/01 07:28:57;;;;;;;15.05;7.13;;;7.30;99.90;;;;;;5084830;28;20039;-70
2023/01/01 07:31:23;;;;;;;13.60;7.55;;;7.40;99.90;;;;;;5093649;28;20053;-70
2023/01/01 07:33:48;;;;;;;12.38;6.47;;;7.40;99.90;;;;;;5084320;28;20043;-70
2023/01/01 07:36:14;;;;;;;15.07;8.98;;;7.50;99.90;;;;;;5079769;28;20028;-70
2023/01/01 07:38:40;;;;;;;14.02;8.55;;;7.50;99.90;;;;;;5078951;28;20020;-70
2023/01/01 07:41:06;;;;;;;17.80;8.65;;;7.50;99.90;;;;;;5088946;28;20032;-70
2023/01/01 07:43:32;;;;;;;12.90;8.70;;;7.60;99.90;;;;;;5092843;28;20744;-70
2023/01/01 07:45:58;;;;;;;12.93;7.57;;;7.60;99.90;;;;;;5088724;28;20036;-70
2023/01/01 07:48:24;;;;;;;13.90;7.72;;;7.70;99.90;;;;;;5087099;28;20040;-70
2023/01/01 07:50:50;;;;;;;15.80;9.07;;;7.80;99.90;;;;;;5098755;28;20024;-70
2023/01/01 07:53:15;;;;;;;13.23;7.50;;;7.90;99.90;;;;;;5089762;28;20114;-70
2023/01/01 07:55:41;;;;;;;17.40;9.63;;;7.90;99.90;;;;;;5089236;28;20493;-69
2023/01/01 07:58:08;;;;;;;15.48;9.45;;;7.90;99.90;;;;;;5083699;28;20043;-70
2023/01/01 08:00:34;;;;;;;14.68;8.95;;;7.90;99.90;;;;;;5090953;28;20035;-70
2023/01/01 08:02:59;;;;;;;17.02;9.82;;;7.90;99.90;;;;;;5089912;28;20044;-70
2023/01/01 08:05:25;;;;;;;15.68;8.38;;;7.80;99.90;;;;;;5090748;28;20077;-70
2023/01/01 08:07:51;;;;;;;17.42;9.27;;;7.80;99.90;;;;;;5084083;28;20032;-70
2023/01/01 08:10:19;;;;;;;14.20;9.10;;;7.80;99.90;;;;;;5090974;28;20039;-70
2023/01/01 08:12:44;;;;;;;15.88;9.20;;;7.80;99.90;;;;;;5084809;28;20508;-70
2023/01/01 08:15:11;;;;;;;16.00;8.13;;;7.90;99.90;;;;;;5089584;28;20028;-70
2023/01/01 08:17:37;;;;;;;15.48;9.55;;;7.90;99.90;;;;;;5087430;28;20170;-70
2023/01/01 08:20:03;;;;;;;16.17;9.57;;;8.00;99.90;;;;;;5090637;28;20042;-70
2023/01/01 08:22:29;;;;;;;13.70;8.93;;;8.10;99.90;;;;;;5083711;28;20024;-70
2023/01/01 08:24:54;;;;;;;16.05;8.80;;;8.10;99.90;;;;;;5089405;28;20031;-70
2023/01/01 08:27:20;;;;;;;15.10;9.00;;;8.20;99.90;;;;;;5084860;28;20044;-69
2023/01/01 08:29:46;;;;;;;15.90;7.95;;;8.20;99.90;;;;;;5087881;28;20060;-70
2023/01/01 08:32:12;;;;;;;16.25;10.10;;;8.30;99.90;;;;;;5089334;28;20110;-70
2023/01/01 08:34:38;;;;;;;15.05;8.07;;;8.30;99.90;;;;;;5084968;28;20101;-70
2023/01/01 08:37:04;;;;;;;16.70;9.20;;;8.30;99.90;;;;;;5093597;28;20035;-70
2023/01/01 08:39:30;;;;;;;16.42;9.35;;;8.40;99.90;;;;;;5092686;28;20059;-70
2023/01/01 08:41:55;;;;;;;15.93;9.40;;;8.30;99.90;;;;;;5084014;28;20059;-70
2023/01/01 08:44:21;;;;;;;15.18;8.75;;;8.30;99.90;;;;;;5092225;28;20059;-70
2023/01/01 08:46:47;;;;;;;17.58;9.13;;;8.30;99.90;;;;;;5085219;28;20024;-70
2023/01/01 08:49:13;;;;;;;14.73;8.65;;;8.30;99.90;;;;;;5095970;28;20055;-70
2023/01/01 08:51:39;;;;;;;16.77;9.45;;;8.30;99.90;;;;;;5085026;28;20477;-70
2023/01/01 08:54:05;;;;;;;16.55;9.93;;;8.40;99.90;;;;;;5084963;28;20020;-70
2023/01/01 08:56:31;;;;;;;16.42;9.45;;;8.50;99.90;;;;;;5088805;28;20051;-70
2023/01/01 08:58:56;;;;;;;14.77;8.52;;;8.50;99.90;;;;;;5090436;28;20026;-70
2023/01/01 09:01:24;;;;;;;19.33;10.23;;;8.50;99.90;;;;;;5091779;28;20028;-70
2023/01/01 09:03:50;;;;;;;19.00;12.05;;;8.50;99.90;;;;;;5087314;28;20039;-70
2023/01/01 09:06:16;;;;;;;17.33;9.98;;;8.50;99.90;;;;;;5095265;28;20032;-70
2023/01/01 09:08:42;;;;;;;18.20;10.38;;;8.50;99.90;;;;;;5092637;28;20040;-70
2023/01/01 09:11:25;;;;;;;16.95;9.45;;;8.40;99.90;;;;;;5093360;28;20028;-70
2023/01/01 09:13:51;;;;;;;16.45;8.90;;;8.50;99.90;;;;;;5084522;28;20038;-70
2023/01/01 09:16:17;;;;;;;15.48;9.40;;;8.60;99.90;;;;;;5093183;28;20059;-70
2023/01/01 09:18:43;;;;;;;15.13;8.85;;;8.60;99.90;;;;;;5088909;28;20748;-70
2023/01/01 09:21:09;;;;;;;58.20;37.78;;;8.80;99.90;;;;;;5095188;28;20043;-70
2023/01/01 09:23:34;;;;;;;21.00;12.07;;;8.80;99.90;;;;;;5095695;28;20043;-70
2023/01/01 09:26:07;;;;;;;18.10;12.00;;;8.80;99.90;;;;;;5094201;28;20028;-70
2023/01/01 09:28:34;;;;;;;22.17;12.18;;;8.70;99.90;;;;;;5100558;28;20096;-70
2023/01/01 09:31:00;;;;;;;18.33;10.43;;;8.70;99.90;;;;;;5093596;28;20035;-70
2023/01/01 09:33:27;;;;;;;17.65;11.88;;;8.60;99.90;;;;;;5094506;28;20040;-70
2023/01/01 09:35:52;;;;;;;23.20;11.93;;;8.60;99.90;;;;;;5091466;28;20041;-71
2023/01/01 09:38:18;;;;;;;20.52;10.45;;;8.60;99.90;;;;;;5097338;28;20031;-73
2023/01/01 09:41:19;;;;;;;19.90;10.48;;;8.70;99.90;;;;;;5086638;28;20043;-72
2023/01/01 09:44:24;;;;;;;16.67;9.20;;;8.80;99.90;;;;;;5089250;27;20054;-73
2023/01/01 09:46:51;;;;;;;;;;;8.90;99.90;;;;;;5086953;28;20035;-75
2023/01/01 09:49:38;;;;;;;23.95;13.07;;;8.80;99.90;;;;;;5095322;28;19914;-72
2023/01/01 09:52:05;;;;;;;19.25;10.85;;;8.80;99.90;;;;;;5085332;28;20035;-73
2023/01/01 09:54:43;;;;;;;19.42;10.95;;;8.80;99.90;;;;;;5085950;28;20015;-73
2023/01/01 09:57:11;;;;;;;17.52;10.23;;;8.80;99.90;;;;;;5091355;28;20031;-72
2023/01/01 09:59:39;;;;;;;16.40;9.60;;;8.90;99.90;;;;;;5091170;28;20037;-73
2023/01/01 10:02:22;;;;;;;18.17;10.27;;;8.90;99.90;;;;;;5089819;28;20130;-73
2023/01/01 10:04:54;;;;;;;18.33;9.60;;;9.00;99.90;;;;;;5082518;28;20028;-73
2023/01/01 10:07:47;;;;;;;17.25;9.52;;;9.10;99.90;;;;;;5093525;28;20055;-73
2023/01/01 10:10:34;;;;;;;17.73;10.00;;;9.10;99.90;;;;;;5092437;28;20032;-73
2023/01/01 10:13:46;;;;;;;18.17;9.80;;;9.10;99.90;;;;;;5087603;28;20044;-74
2023/01/01 10:16:36;;;;;;;18.30;10.52;;;9.00;99.90;;;;;;5086938;28;20371;-73
2023/01/01 10:19:24;;;;;;;15.48;8.90;;;9.20;99.90;;;;;;5090575;28;20741;-73
2023/01/01 10:21:53;;;;;;;17.92;9.48;;;9.10;99.90;;;;;;5096559;28;20040;-73
2023/01/01 10:24:42;;;;;;;18.58;10.32;;;9.10;99.90;;;;;;5098693;28;20031;-73
2023/01/01 10:27:24;;;;;;;18.10;11.35;;;9.10;99.90;;;;;;5096530;28;20094;-73
2023/01/01 10:29:51;;;;;;;15.82;9.98;;;9.20;99.90;;;;;;5094979;28;20058;-73
2023/01/01 10:32:19;;;;;;;17.27;10.65;;;9.30;99.90;;;;;;5096692;28;20051;-73
2023/01/01 10:34:47;;;;;;;17.33;10.27;;;9.40;99.90;;;;;;5087922;28;20024;-72
2023/01/01 10:37:14;;;;;;;18.73;10.65;;;9.30;99.90;;;;;;5087325;28;20090;-72
2023/01/01 10:39:40;;;;;;;18.27;10.13;;;9.40;99.90;;;;;;5084435;28;20036;-74
2023/01/01 10:42:09;;;;;;;18.67;10.25;;;9.40;99.90;;;;;;5084643;28;20044;-73
2023/01/01 10:44:35;;;;;;;19.15;11.43;;;9.40;99.90;;;;;;5083578;28;20558;-73
2023/01/01 10:47:23;;;;;;;19.38;10.90;;;9.50;99.90;;;;;;5084460;28;20024;-73
2023/01/01 10:50:01;;;;;;;15.77;8.25;;;9.50;99.90;;;;;;5087081;28;20028;-73
2023/01/01 10:52:36;;;;;;;11.25;7.63;;;9.50;99.90;;;;;;5098435;28;20385;-73
2023/01/01 10:55:03;;;;;;;13.13;6.93;;;9.60;99.90;;;;;;5084090;28;20344;-73
2023/01/01 10:57:39;;;;;;;12.32;7.75;;;9.70;99.90;;;;;;5083495;28;20031;-74
2023/01/01 11:00:26;;;;;;;16.27;9.85;;;9.80;99.90;;;;;;5094087;28;20168;-73
2023/01/01 11:03:17;;;;;;;14.55;9.38;;;9.70;99.90;;;;;;5089471;28;20502;-72
2023/01/01 11:06:20;;;;;;;18.67;11.15;;;9.70;99.90;;;;;;5093922;28;20031;-73
2023/01/01 11:08:52;;;;;;;19.35;10.07;;;9.60;99.90;;;;;;5086837;28;20028;-73
2023/01/01 11:11:27;;;;;;;17.23;10.43;;;9.70;99.90;;;;;;5085089;28;20034;-74
2023/01/01 11:13:53;;;;;;;;;;;9.60;99.90;;;;;;5092245;28;20024;-74
2023/01/01 11:16:19;;;;;;;18.70;11.15;;;9.50;99.90;;;;;;5094079;28;19907;-73
2023/01/01 11:18:46;;;;;;;16.98;9.35;;;9.50;99.90;;;;;;5090295;28;20028;-71
2023/01/01 11:21:19;;;;;;;17.55;10.23;;;9.50;99.90;;;;;;5088036;28;20020;-72
2023/01/01 11:23:45;;;;;;;16.30;10.68;;;9.60;99.90;;;;;;5089365;28;20394;-73
2023/01/01 11:26:11;;;;;;;18.73;10.48;;;9.60;99.90;;;;;;5093251;28;20405;-73
2023/01/01 11:28:38;;;;;;;18.05;10.98;;;9.50;99.90;;;;;;5097221;28;20031;-73
2023/01/01 11:31:17;;;;;;;18.60;11.07;;;9.50;99.90;;;;;;5090039;28;20358;-73
2023/01/01 11:33:48;;;;;;;16.58;10.32;;;9.50;99.90;;;;;;5097648;28;20051;-73
2023/01/01 11:36:43;;;;;;;18.90;10.18;;;9.60;99.90;;;;;;5093118;28;20042;-73
2023/01/01 11:39:28;;;;;;;19.63;10.52;;;9.60;99.90;;;;;;5084320;28;20851;-73
2023/01/01 11:41:56;;;;;;;17.63;11.05;;;9.60;99.90;;;;;;5092641;28;20035;-74
2023/01/01 11:44:36;;;;;;;19.45;10.30;;;9.60;99.90;;;;;;5095790;28;20032;-74
2023/01/01 11:47:03;;;;;;;16.85;9.60;;;9.80;99.90;;;;;;5096052;28;20508;-73
2023/01/01 11:49:30;;;;;;;17.45;10.23;;;9.80;99.90;;;;;;5092208;28;20028;-73
2023/01/01 11:51:57;;;;;;;20.52;10.23;;;9.90;99.90;;;;;;5103850;28;20085;-72
2023/01/01 11:54:27;;;;;;;18.42;10.65;;;9.90;99.90;;;;;;5098769;28;20024;-73
2023/01/01 11:57:02;;;;;;;21.50;11.40;;;9.90;99.90;;;;;;5092120;28;20369;-73
2023/01/01 11:59:41;;;;;;;18.38;10.98;;;9.90;99.90;;;;;;5096673;27;20105;-73
2023/01/01 12:02:13;;;;;;;18.58;9.65;;;9.90;99.90;;;;;;5091436;28;20031;-75
2023/01/01 12:04:54;;;;;;;17.10;11.02;;;9.90;99.90;;;;;;5092313;28;20048;-75
2023/01/01 12:07:28;;;;;;;17.80;10.32;;;9.90;99.90;;;;;;5096337;28;20054;-75
2023/01/01 12:10:00;;;;;;;18.02;10.73;;;9.80;99.90;;;;;;5105411;28;20322;-75
2023/01/01 12:12:49;;;;;;;15.95;9.27;;;9.90;99.90;;;;;;5089394;28;20032;-72
2023/01/01 12:15:20;;;;;;;18.98;10.00;;;10.20;99.90;;;;;;5095569;28;20028;-73
2023/01/01 12:18:17;;;;;;;18.65;10.20;;;10.20;99.90;;;;;;5086120;28;20115;-73
2023/01/01 12:20:58;;;;;;;30.73;10.45;;;10.30;99.90;;;;;;5098839;27;20028;-72
2023/01/01 12:23:24;;;;;;;41.85;12.52;;;10.20;99.90;;;;;;5098002;27;20032;-73
2023/01/01 12:25:59;;;;;;;21.65;10.63;;;10.20;99.90;;;;;;5093545;28;20603;-73
2023/01/01 12:28:57;;;;;;;59.38;25.77;;;10.10;99.90;;;;;;5091984;28;20433;-73
2023/01/01 12:31:41;;;;;;;119.80;21.48;;;10.10;99.90;;;;;;5084547;28;20397;-73
2023/01/01 12:34:19;;;;;;;21.17;11.57;;;10.10;99.90;;;;;;5094685;27;20115;-73
2023/01/01 12:37:03;;;;;;;18.90;10.57;;;10.10;99.90;;;;;;5088129;28;20114;-72
2023/01/01 12:39:43;;;;;;;17.77;10.30;;;10.10;99.90;;;;;;5088636;28;20059;-73
2023/01/01 12:43:00;;;;;;;19.33;11.13;;;10.10;99.90;;;;;;5097107;28;20053;-73
2023/01/01 12:45:32;;;;;;;20.63;11.20;;;10.10;99.90;;;;;;5035510;28;20041;-73
2023/01/01 12:48:03;;;;;;;17.08;10.00;;;10.10;99.90;;;;;;5083459;28;20055;-73
2023/01/01 12:50:53;;;;;;;18.58;11.18;;;10.10;99.90;;;;;;5094927;28;20023;-73
2023/01/01 12:53:32;;;;;;;20.10;9.77;;;10.00;99.90;;;;;;5087722;28;20123;-73
2023/01/01 12:56:16;;;;;;;20.30;10.05;;;10.00;99.90;;;;;;5095701;28;20035;-75
2023/01/01 12:59:14;;;;;;;18.20;9.55;;;10.10;99.90;;;;;;5098035;28;20528;-74
2023/01/01 13:01:41;;;;;;;15.38;9.35;;;10.00;99.90;;;;;;5101603;28;20046;-74
2023/01/01 13:04:11;;;;;;;15.52;9.13;;;10.00;99.90;;;;;;5096883;28;20039;-74
2023/01/01 13:06:46;;;;;;;20.65;10.32;;;10.10;99.90;;;;;;5089717;28;20107;-74
2023/01/01 13:09:18;;;;;;;19.67;10.43;;;10.20;99.90;;;;;;5089489;28;20044;-72